Portada
METAR-TAF:

METAR-TAF

Aeroports :

Tarawa, Kiribati

latitud: 01-21N, longitud: 172-55E, altitud: 2 m

Observació

L'informe es va fer fa 1 hora i 2 minuts, a les 00:00 UTC
Vent 15 kt del Nord-Est
Temperatura 30°C
Humitat 75%
Pressió 1007 hPa
Visibilitat 10 km o més
Núvols disperses a una alçada de 1900 ft

METAR: NGTA 300000Z 05015KT 9999 SCT019 30/25 Q1007

Hora: 15:02 (01:02 UTC)

Pronòstic

L'informe es va fer fa 1 hora i 40 minuts, a les 23:22 UTC
Pronòstic vàlid del 30 a les 00 UTC al 30 a les 24 UTC
Vent 12 kt del Nord-Est
Visibilitat 10 km o més
Núvols disperses a una alçada de 1900 ft
Probabilitat 30% :
Temporalment
l' 30 a les 00 UTC al 30 a les 05 UTC
Vent 15 kt del Nord-Est amb ràfegues de 25 kt

TAF: NGTA 292322Z 3000/3024 05012KT 9999 SCT019 PROB30 TEMPO 3000/3005 05015G25KT

Observacions i pronòstics meteorològics de més de 4000 aeroports (METAR i TAF).

Les estacions disponibles són els punts grocs i vermells al mapa.

Posi el ratolí al punt desitjat per veure el nom de l'estació.

Feu clic per veure les observacions i els pronòstics meteorològics.

Per canviar el mapa: feu clic els botons verds amb una creu de color negre per apropar; al botó verd amb un guió per allunyar la imatge; o en les fletxes verdes per a mapes adjacents.


METAR-TAF: